»·PEaware :: N13W KTOA-KTNP

N13W :: KTOA-KTNP

FLIGHT INFORMATION

Flight Status: Arrived
Operator: Privately registered:
United States
More flights under this callsign
Pilot: Will N. (25416)
Aircraft: SOCATA TBM-900
(TBM9)
More flights by this aircraft type
Origin: KTOA Zamperini
United States
Destination: KTNP Twentynine Palms
United States
More flights between these airports :: More routes between these airports
Route: +SLI V8 PDZ V388 PSP
File this flight plan on PilotEdge
Remarks:
Altitude:
(Current/Filed)
21,000ft
Speed:
(Current/Filed)
310kts
Departed: 04-Jan-20 08:47 PM
Arrived: 04-Jan-20 09:53 PM
Distance/Time
Traveled:
121nm/1:06
Distance/Time
To Go:
Arrived

Flight Plot

Page will automatically refresh every two minutes.

Flight plan parsing failed; only flown route is shown


Map Options




Map Legend


Flown Route
Filed Route
Departure Airport
Arrival Airport
Navaid (VOR, NDB)
Fix

Horizontal Profiles

Position Reports

Time Latitude Longitude Heading Altitude Ground
Speed
04-Jan-20 20:30 33.804199 -118.345322 30 100ft 0kts
04-Jan-20 20:31 33.804199 -118.345322 30 100ft 0kts
04-Jan-20 20:32 33.804199 -118.345322 30 100ft 0kts
04-Jan-20 20:33 33.804199 -118.345322 30 100ft 0kts
04-Jan-20 20:34 33.804199 -118.345322 30 100ft 0kts
04-Jan-20 20:35 33.804199 -118.345322 30 100ft 0kts
04-Jan-20 20:36 33.804199 -118.345322 30 100ft 0kts
04-Jan-20 20:37 33.804199 -118.345322 30 100ft 0kts
04-Jan-20 20:38 33.804199 -118.345321 30 100ft 0kts
04-Jan-20 20:39 33.804199 -118.345322 30 100ft 0kts
04-Jan-20 20:40 33.804199 -118.345322 30 100ft 0kts
04-Jan-20 20:41 33.804292 -118.345179 77 100ft 7kts
04-Jan-20 20:42 33.801540 -118.339820 129 102ft 26kts
04-Jan-20 20:43 33.798118 -118.334207 40 107ft 8kts
04-Jan-20 20:44 33.799036 -118.333378 36 100ft 0kts
04-Jan-20 20:45 33.799036 -118.333378 36 100ft 0kts
04-Jan-20 20:46 33.802970 -118.337971 310 105ft 111kts
04-Jan-20 20:47 33.829787 -118.374719 302 1478ft 131kts
04-Jan-20 20:48 33.823607 -118.384202 67 498ft 137kts
04-Jan-20 20:49 33.818291 -118.361643 169 95ft 83kts
04-Jan-20 20:50 33.815881 -118.360749 150 75ft 0kts
04-Jan-20 20:51 33.815881 -118.360749 150 75ft 0kts
04-Jan-20 20:52 33.801075 -118.340641 218 106ft 0kts
04-Jan-20 20:53 33.801075 -118.340641 218 106ft 0kts
04-Jan-20 20:54 33.801075 -118.340641 218 106ft 0kts
04-Jan-20 20:55 33.801075 -118.340641 218 106ft 0kts
04-Jan-20 20:56 33.801075 -118.340641 218 106ft 0kts
04-Jan-20 20:57 33.801075 -118.340641 218 106ft 0kts
04-Jan-20 20:58 33.801075 -118.340641 218 106ft 0kts
04-Jan-20 20:59 33.801075 -118.340641 218 106ft 0kts
04-Jan-20 21:00 33.801075 -118.340641 218 106ft 0kts
04-Jan-20 21:01 33.800735 -118.340182 104 106ft 0kts
04-Jan-20 21:02 33.801131 -118.339498 59 103ft 9kts
04-Jan-20 21:03 33.800128 -118.337675 130 103ft 7kts
04-Jan-20 21:04 33.798269 -118.334890 128 107ft 11kts
04-Jan-20 21:05 33.798971 -118.333412 38 100ft 0kts
04-Jan-20 21:06 33.799413 -118.333004 27 98ft 9kts
04-Jan-20 21:07 33.811384 -118.350482 304 644ft 139kts
04-Jan-20 21:08 33.834589 -118.394168 302 3089ft 150kts
04-Jan-20 21:09 33.823572 -118.429973 167 5018ft 189kts
04-Jan-20 21:10 33.785753 -118.368266 121 4996ft 244kts
04-Jan-20 21:11 33.772936 -118.290994 85 5852ft 222kts
04-Jan-20 21:12 33.776107 -118.219836 84 7811ft 207kts
04-Jan-20 21:13 33.779236 -118.149142 84 9013ft 233kts
04-Jan-20 21:14 33.782657 -118.069442 84 10249ft 227kts
04-Jan-20 21:16 33.797692 -117.999235 68 12208ft 211kts
04-Jan-20 21:17 33.815009 -117.932424 67 14184ft 212kts
04-Jan-20 21:18 33.832819 -117.863494 67 16180ft 218kts
04-Jan-20 21:19 33.850792 -117.793773 66 18153ft 218kts
04-Jan-20 21:20 33.868511 -117.723158 66 20153ft 230kts
04-Jan-20 21:21 33.888888 -117.644509 67 21371ft 278kts
04-Jan-20 21:22 33.913737 -117.548008 68 21356ft 315kts
04-Jan-20 21:23 33.922093 -117.439967 84 21352ft 328kts
04-Jan-20 21:24 33.926723 -117.327489 84 21344ft 329kts
04-Jan-20 21:25 33.931567 -117.216084 84 21340ft 329kts
04-Jan-20 21:26 33.936005 -117.104169 85 21337ft 329kts
04-Jan-20 21:27 33.939986 -116.993584 86 21343ft 329kts
04-Jan-20 21:28 33.943826 -116.883501 87 21346ft 324kts
04-Jan-20 21:29 33.947444 -116.776467 87 21349ft 312kts
04-Jan-20 21:30 33.932449 -116.675452 109 21044ft 310kts
04-Jan-20 21:31 33.906519 -116.573324 108 19550ft 316kts
04-Jan-20 21:32 33.919221 -116.467943 72 18007ft 314kts
04-Jan-20 21:33 33.942295 -116.363563 73 16622ft 299kts
04-Jan-20 21:34 33.963813 -116.265242 73 15566ft 288kts
04-Jan-20 21:35 33.984526 -116.170214 74 14529ft 283kts
04-Jan-20 21:35 34.001816 -116.090599 74 13532ft 284kts
04-Jan-20 21:37 34.025887 -115.979294 74 12072ft 280kts
04-Jan-20 21:38 34.046380 -115.884123 74 10726ft 276kts
04-Jan-20 21:38 34.062764 -115.807757 74 9404ft 264kts
04-Jan-20 21:40 34.084930 -115.704033 75 7555ft 252kts
04-Jan-20 21:40 34.099252 -115.636740 75 7055ft 218kts
04-Jan-20 21:41 34.099984 -115.565928 96 7000ft 205kts
04-Jan-20 21:42 34.090129 -115.491574 131 6044ft 214kts
04-Jan-20 21:43 34.064425 -115.519736 292 6061ft 182kts
04-Jan-20 21:44 34.086707 -115.577461 293 6064ft 180kts
04-Jan-20 21:45 34.106780 -115.637067 268 5416ft 201kts
04-Jan-20 21:46 34.112701 -115.706549 275 4850ft 186kts
04-Jan-20 21:47 34.118586 -115.764181 273 4487ft 139kts
04-Jan-20 21:48 34.124042 -115.812534 281 3777ft 135kts
04-Jan-20 21:49 34.132072 -115.857174 277 2990ft 125kts
04-Jan-20 21:50 34.134718 -115.900624 266 2350ft 123kts
04-Jan-20 21:51 34.134453 -115.932127 267 1929ft 76kts
04-Jan-20 21:52 34.134773 -115.941551 358 1890ft 5kts
04-Jan-20 21:53 34.135214 -115.943901 270 1888ft 8kts
04-Jan-20 21:54 34.135598 -115.944211 88 1885ft 0kts

Navigation Log

Ident Type
Flight plan parsing failed, navigation log unavailable